sensor_id;sensor_type;location;lat;lon;timestamp;noise_LAeq;noise_LA_min;noise_LA_max;noise_LA01;noise_LA95
40103;Laerm;25814;48.550;9.108;2024-03-02T00:01:10;29.99;28.84;33.81;;
40103;Laerm;25814;48.550;9.108;2024-03-02T00:03:38;29.95;28.82;32.65;;
40103;Laerm;25814;48.550;9.108;2024-03-02T00:06:04;30.05;29.08;32.32;;
40103;Laerm;25814;48.550;9.108;2024-03-02T00:08:30;29.92;29.05;31.30;;
40103;Laerm;25814;48.550;9.108;2024-03-02T00:11:01;31.05;29.15;36.65;;
40103;Laerm;25814;48.550;9.108;2024-03-02T00:13:29;30.15;29.00;32.81;;
40103;Laerm;25814;48.550;9.108;2024-03-02T00:15:57;30.38;29.05;34.99;;
40103;Laerm;25814;48.550;9.108;2024-03-02T00:18:31;30.04;28.89;43.22;;
40103;Laerm;25814;48.550;9.108;2024-03-02T00:20:58;30.34;28.89;36.35;;
40103;Laerm;25814;48.550;9.108;2024-03-02T00:23:29;34.53;29.10;47.64;;
40103;Laerm;25814;48.550;9.108;2024-03-02T00:25:56;30.80;29.28;38.83;;
40103;Laerm;25814;48.550;9.108;2024-03-02T00:28:34;30.10;29.06;32.53;;
40103;Laerm;25814;48.550;9.108;2024-03-02T00:31:12;30.24;29.26;33.16;;
40103;Laerm;25814;48.550;9.108;2024-03-02T00:33:43;33.21;29.71;42.53;;
40103;Laerm;25814;48.550;9.108;2024-03-02T00:36:14;31.52;29.76;38.34;;
40103;Laerm;25814;48.550;9.108;2024-03-02T00:38:49;31.85;29.28;36.16;;
40103;Laerm;25814;48.550;9.108;2024-03-02T00:41:29;30.27;29.33;33.13;;
40103;Laerm;25814;48.550;9.108;2024-03-02T00:44:03;30.28;29.18;35.74;;
40103;Laerm;25814;48.550;9.108;2024-03-02T00:46:40;30.22;29.02;35.73;;
40103;Laerm;25814;48.550;9.108;2024-03-02T00:49:24;30.46;29.12;33.15;;
40103;Laerm;25814;48.550;9.108;2024-03-02T00:51:53;30.18;29.08;45.28;;
40103;Laerm;25814;48.550;9.108;2024-03-02T00:54:26;30.06;29.06;33.43;;
40103;Laerm;25814;48.550;9.108;2024-03-02T00:56:54;30.25;28.56;34.10;;
40103;Laerm;25814;48.550;9.108;2024-03-02T00:59:22;38.39;29.17;54.79;;
40103;Laerm;25814;48.550;9.108;2024-03-02T01:01:48;29.84;28.93;33.93;;
40103;Laerm;25814;48.550;9.108;2024-03-02T01:04:15;30.37;29.01;35.11;;
40103;Laerm;25814;48.550;9.108;2024-03-02T01:06:44;29.91;28.98;32.66;;
40103;Laerm;25814;48.550;9.108;2024-03-02T01:09:11;29.92;29.11;33.64;;
40103;Laerm;25814;48.550;9.108;2024-03-02T01:11:37;30.41;29.25;36.34;;
40103;Laerm;25814;48.550;9.108;2024-03-02T01:14:04;29.88;29.04;44.53;;
40103;Laerm;25814;48.550;9.108;2024-03-02T01:16:30;29.79;28.90;34.51;;
40103;Laerm;25814;48.550;9.108;2024-03-02T01:18:56;30.41;29.21;32.90;;
40103;Laerm;25814;48.550;9.108;2024-03-02T01:21:22;34.71;29.13;48.85;;
40103;Laerm;25814;48.550;9.108;2024-03-02T01:23:48;29.75;28.89;32.49;;
40103;Laerm;25814;48.550;9.108;2024-03-02T01:26:14;30.07;29.00;32.86;;
40103;Laerm;25814;48.550;9.108;2024-03-02T01:28:41;30.11;29.13;35.27;;
40103;Laerm;25814;48.550;9.108;2024-03-02T01:31:07;30.03;28.90;32.73;;
40103;Laerm;25814;48.550;9.108;2024-03-02T01:33:33;29.99;29.00;45.08;;
40103;Laerm;25814;48.550;9.108;2024-03-02T01:35:59;30.35;28.97;32.48;;
40103;Laerm;25814;48.550;9.108;2024-03-02T01:38:25;30.57;29.30;33.65;;
40103;Laerm;25814;48.550;9.108;2024-03-02T01:40:51;30.10;29.18;35.85;;
40103;Laerm;25814;48.550;9.108;2024-03-02T01:43:17;30.20;29.09;40.18;;
40103;Laerm;25814;48.550;9.108;2024-03-02T01:45:43;29.92;29.04;31.85;;
40103;Laerm;25814;48.550;9.108;2024-03-02T01:48:10;30.01;29.09;32.51;;
40103;Laerm;25814;48.550;9.108;2024-03-02T01:50:36;31.21;29.27;37.57;;
40103;Laerm;25814;48.550;9.108;2024-03-02T01:53:02;30.21;29.17;44.39;;
40103;Laerm;25814;48.550;9.108;2024-03-02T01:55:28;30.12;29.14;41.57;;
40103;Laerm;25814;48.550;9.108;2024-03-02T01:57:56;30.46;29.28;34.30;;
40103;Laerm;25814;48.550;9.108;2024-03-02T02:00:23;29.93;29.15;34.64;;
40103;Laerm;25814;48.550;9.108;2024-03-02T02:02:52;29.88;28.98;38.24;;
40103;Laerm;25814;48.550;9.108;2024-03-02T02:05:18;29.74;28.89;31.80;;
40103;Laerm;25814;48.550;9.108;2024-03-02T02:07:44;31.42;29.22;34.69;;
40103;Laerm;25814;48.550;9.108;2024-03-02T02:10:11;30.55;29.19;45.71;;
40103;Laerm;25814;48.550;9.108;2024-03-02T02:12:37;30.12;29.28;31.51;;
40103;Laerm;25814;48.550;9.108;2024-03-02T02:15:32;29.97;28.86;33.73;;
40103;Laerm;25814;48.550;9.108;2024-03-02T02:18:00;29.95;29.00;31.66;;
40103;Laerm;25814;48.550;9.108;2024-03-02T02:20:27;30.76;29.12;37.64;;
40103;Laerm;25814;48.550;9.108;2024-03-02T02:23:03;33.55;29.13;47.55;;
40103;Laerm;25814;48.550;9.108;2024-03-02T02:25:35;29.87;29.04;38.20;;
40103;Laerm;25814;48.550;9.108;2024-03-02T02:28:01;29.91;29.00;33.43;;
40103;Laerm;25814;48.550;9.108;2024-03-02T02:30:30;30.43;29.12;35.65;;
40103;Laerm;25814;48.550;9.108;2024-03-02T02:32:57;30.31;29.22;43.27;;
40103;Laerm;25814;48.550;9.108;2024-03-02T02:35:24;29.89;29.19;31.45;;
40103;Laerm;25814;48.550;9.108;2024-03-02T02:37:52;29.90;29.12;34.38;;
40103;Laerm;25814;48.550;9.108;2024-03-02T02:40:19;30.73;29.16;44.40;;
40103;Laerm;25814;48.550;9.108;2024-03-02T02:42:46;29.80;28.99;32.26;;
40103;Laerm;25814;48.550;9.108;2024-03-02T02:45:12;30.01;28.85;36.95;;
40103;Laerm;25814;48.550;9.108;2024-03-02T02:47:42;30.24;29.12;33.07;;
40103;Laerm;25814;48.550;9.108;2024-03-02T02:50:12;29.76;28.90;32.64;;
40103;Laerm;25814;48.550;9.108;2024-03-02T02:52:41;30.35;29.09;39.38;;
40103;Laerm;25814;48.550;9.108;2024-03-02T02:55:10;29.98;29.07;43.73;;
40103;Laerm;25814;48.550;9.108;2024-03-02T02:57:39;29.80;29.05;40.14;;
40103;Laerm;25814;48.550;9.108;2024-03-02T03:00:14;30.25;29.07;34.28;;
40103;Laerm;25814;48.550;9.108;2024-03-02T03:02:42;29.85;28.97;33.63;;
40103;Laerm;25814;48.550;9.108;2024-03-02T03:05:13;29.91;29.08;33.33;;
40103;Laerm;25814;48.550;9.108;2024-03-02T03:07:40;30.12;28.95;33.19;;
40103;Laerm;25814;48.550;9.108;2024-03-02T03:10:08;29.89;29.05;31.45;;
40103;Laerm;25814;48.550;9.108;2024-03-02T03:12:34;30.21;29.13;39.86;;
40103;Laerm;25814;48.550;9.108;2024-03-02T03:15:02;29.95;29.07;32.32;;
40103;Laerm;25814;48.550;9.108;2024-03-02T03:17:29;29.99;29.05;42.51;;
40103;Laerm;25814;48.550;9.108;2024-03-02T03:19:56;30.76;29.11;37.98;;
40103;Laerm;25814;48.550;9.108;2024-03-02T03:22:22;36.38;29.39;48.80;;
40103;Laerm;25814;48.550;9.108;2024-03-02T03:24:48;30.25;28.99;47.76;;
40103;Laerm;25814;48.550;9.108;2024-03-02T03:27:14;29.79;28.98;32.94;;
40103;Laerm;25814;48.550;9.108;2024-03-02T03:29:40;29.88;29.06;31.45;;
40103;Laerm;25814;48.550;9.108;2024-03-02T03:32:07;29.89;28.97;31.08;;
40103;Laerm;25814;48.550;9.108;2024-03-02T03:34:33;32.64;29.13;41.07;;
40103;Laerm;25814;48.550;9.108;2024-03-02T03:36:59;30.16;29.23;39.25;;
40103;Laerm;25814;48.550;9.108;2024-03-02T03:39:26;31.49;29.35;43.44;;
40103;Laerm;25814;48.550;9.108;2024-03-02T03:41:52;30.30;29.40;32.17;;
40103;Laerm;25814;48.550;9.108;2024-03-02T03:44:18;30.96;29.54;35.02;;
40103;Laerm;25814;48.550;9.108;2024-03-02T03:46:44;31.02;29.88;43.66;;
40103;Laerm;25814;48.550;9.108;2024-03-02T03:49:11;31.35;30.10;36.33;;
40103;Laerm;25814;48.550;9.108;2024-03-02T03:51:37;30.86;29.90;33.88;;
40103;Laerm;25814;48.550;9.108;2024-03-02T03:54:03;30.85;29.79;35.13;;
40103;Laerm;25814;48.550;9.108;2024-03-02T03:56:29;33.02;29.88;41.75;;
40103;Laerm;25814;48.550;9.108;2024-03-02T03:58:55;33.29;30.10;45.97;;
40103;Laerm;25814;48.550;9.108;2024-03-02T04:01:21;31.22;29.94;33.67;;
40103;Laerm;25814;48.550;9.108;2024-03-02T04:03:48;31.46;30.08;43.09;;
40103;Laerm;25814;48.550;9.108;2024-03-02T04:06:14;31.14;30.18;41.98;;
40103;Laerm;25814;48.550;9.108;2024-03-02T04:08:42;31.47;30.16;39.54;;
40103;Laerm;25814;48.550;9.108;2024-03-02T04:11:08;31.84;30.58;35.59;;
40103;Laerm;25814;48.550;9.108;2024-03-02T04:13:34;31.50;30.46;34.73;;
40103;Laerm;25814;48.550;9.108;2024-03-02T04:16:01;31.73;30.49;37.94;;
40103;Laerm;25814;48.550;9.108;2024-03-02T04:18:27;31.73;30.61;33.33;;
40103;Laerm;25814;48.550;9.108;2024-03-02T04:20:53;35.09;30.75;44.57;;
40103;Laerm;25814;48.550;9.108;2024-03-02T04:23:19;32.04;30.57;38.29;;
40103;Laerm;25814;48.550;9.108;2024-03-02T04:25:45;34.22;31.37;40.22;;
40103;Laerm;25814;48.550;9.108;2024-03-02T04:28:11;32.85;30.79;37.01;;
40103;Laerm;25814;48.550;9.108;2024-03-02T04:30:38;31.53;29.89;34.65;;
40103;Laerm;25814;48.550;9.108;2024-03-02T04:33:04;30.98;29.84;33.52;;
40103;Laerm;25814;48.550;9.108;2024-03-02T04:35:32;31.87;29.89;41.00;;
40103;Laerm;25814;48.550;9.108;2024-03-02T04:37:58;32.26;30.48;37.85;;
40103;Laerm;25814;48.550;9.108;2024-03-02T04:40:24;31.42;30.28;40.41;;
40103;Laerm;25814;48.550;9.108;2024-03-02T04:42:51;32.15;30.50;35.65;;
40103;Laerm;25814;48.550;9.108;2024-03-02T04:45:17;45.04;30.36;66.63;;
40103;Laerm;25814;48.550;9.108;2024-03-02T04:47:43;31.49;30.14;36.42;;
40103;Laerm;25814;48.550;9.108;2024-03-02T04:50:09;31.78;30.27;35.06;;
40103;Laerm;25814;48.550;9.108;2024-03-02T04:52:36;31.96;30.39;36.42;;
40103;Laerm;25814;48.550;9.108;2024-03-02T04:55:03;30.97;29.93;32.69;;
40103;Laerm;25814;48.550;9.108;2024-03-02T04:57:35;31.52;30.15;36.33;;
40103;Laerm;25814;48.550;9.108;2024-03-02T05:00:01;31.74;30.41;35.03;;
40103;Laerm;25814;48.550;9.108;2024-03-02T05:02:32;34.55;30.01;43.40;;
40103;Laerm;25814;48.550;9.108;2024-03-02T05:04:58;33.80;30.97;41.19;;
40103;Laerm;25814;48.550;9.108;2024-03-02T05:07:24;32.52;31.10;37.75;;
40103;Laerm;25814;48.550;9.108;2024-03-02T05:09:50;32.47;31.32;35.88;;
40103;Laerm;25814;48.550;9.108;2024-03-02T05:12:16;33.08;30.32;45.29;;
40103;Laerm;25814;48.550;9.108;2024-03-02T05:15:01;32.25;30.04;41.50;;
40103;Laerm;25814;48.550;9.108;2024-03-02T05:17:27;36.20;30.97;49.48;;
40103;Laerm;25814;48.550;9.108;2024-03-02T05:19:53;37.24;30.57;56.81;;
40103;Laerm;25814;48.550;9.108;2024-03-02T05:22:19;38.75;30.55;49.91;;
40103;Laerm;25814;48.550;9.108;2024-03-02T05:24:45;32.83;30.62;38.01;;
40103;Laerm;25814;48.550;9.108;2024-03-02T05:27:11;39.82;32.65;48.46;;
40103;Laerm;25814;48.550;9.108;2024-03-02T05:29:38;36.21;31.11;44.88;;
40103;Laerm;25814;48.550;9.108;2024-03-02T05:32:04;40.73;31.45;62.46;;
40103;Laerm;25814;48.550;9.108;2024-03-02T05:34:30;36.14;31.13;45.23;;
40103;Laerm;25814;48.550;9.108;2024-03-02T05:36:58;34.82;32.37;45.72;;
40103;Laerm;25814;48.550;9.108;2024-03-02T05:39:24;32.91;30.70;38.88;;
40103;Laerm;25814;48.550;9.108;2024-03-02T05:41:50;34.30;31.07;42.63;;
40103;Laerm;25814;48.550;9.108;2024-03-02T05:44:16;33.32;31.78;43.62;;
40103;Laerm;25814;48.550;9.108;2024-03-02T05:46:44;32.82;30.33;38.57;;
40103;Laerm;25814;48.550;9.108;2024-03-02T05:49:10;32.34;30.37;43.21;;
40103;Laerm;25814;48.550;9.108;2024-03-02T05:51:36;39.68;31.39;47.98;;
40103;Laerm;25814;48.550;9.108;2024-03-02T05:54:02;34.75;30.48;52.91;;
40103;Laerm;25814;48.550;9.108;2024-03-02T05:56:29;35.92;32.42;53.92;;
40103;Laerm;25814;48.550;9.108;2024-03-02T05:58:55;40.51;33.22;53.58;;
40103;Laerm;25814;48.550;9.108;2024-03-02T06:01:40;39.37;31.14;52.95;;
40103;Laerm;25814;48.550;9.108;2024-03-02T06:04:10;36.39;30.52;52.83;;
40103;Laerm;25814;48.550;9.108;2024-03-02T06:06:37;43.63;30.83;62.57;;
40103;Laerm;25814;48.550;9.108;2024-03-02T06:09:04;42.52;32.07;58.09;;
40103;Laerm;25814;48.550;9.108;2024-03-02T06:11:37;39.71;31.60;64.84;;
40103;Laerm;25814;48.550;9.108;2024-03-02T06:14:08;37.16;30.83;56.33;;
40103;Laerm;25814;48.550;9.108;2024-03-02T06:16:34;36.21;30.77;51.87;;
40103;Laerm;25814;48.550;9.108;2024-03-02T06:19:01;38.34;32.73;50.14;;
40103;Laerm;25814;48.550;9.108;2024-03-02T06:21:27;42.05;34.54;57.34;;
40103;Laerm;25814;48.550;9.108;2024-03-02T06:23:54;37.05;34.35;54.73;;
40103;Laerm;25814;48.550;9.108;2024-03-02T06:26:20;45.84;34.36;61.95;;
40103;Laerm;25814;48.550;9.108;2024-03-02T06:28:46;39.16;34.28;47.98;;
40103;Laerm;25814;48.550;9.108;2024-03-02T06:31:12;53.90;34.25;70.21;;
40103;Laerm;25814;48.550;9.108;2024-03-02T06:33:39;45.83;32.96;63.25;;
40103;Laerm;25814;48.550;9.108;2024-03-02T06:36:07;45.61;32.17;63.87;;
40103;Laerm;25814;48.550;9.108;2024-03-02T06:38:37;40.36;31.23;58.07;;
40103;Laerm;25814;48.550;9.108;2024-03-02T06:41:05;36.56;31.32;52.71;;
40103;Laerm;25814;48.550;9.108;2024-03-02T06:43:32;45.03;30.95;60.00;;
40103;Laerm;25814;48.550;9.108;2024-03-02T06:45:58;45.33;32.27;60.76;;
40103;Laerm;25814;48.550;9.108;2024-03-02T06:48:24;49.54;32.80;69.07;;
40103;Laerm;25814;48.550;9.108;2024-03-02T06:50:50;44.02;32.61;63.35;;
40103;Laerm;25814;48.550;9.108;2024-03-02T06:53:17;40.83;31.87;59.86;;
40103;Laerm;25814;48.550;9.108;2024-03-02T06:55:45;46.28;31.78;63.45;;
40103;Laerm;25814;48.550;9.108;2024-03-02T06:58:13;41.35;30.93;64.00;;
40103;Laerm;25814;48.550;9.108;2024-03-02T07:00:41;41.39;32.16;59.17;;
40103;Laerm;25814;48.550;9.108;2024-03-02T07:03:08;46.34;32.30;57.07;;
40103;Laerm;25814;48.550;9.108;2024-03-02T07:05:34;41.49;32.28;62.88;;
40103;Laerm;25814;48.550;9.108;2024-03-02T07:08:00;39.65;32.74;59.56;;
40103;Laerm;25814;48.550;9.108;2024-03-02T07:10:27;47.79;32.25;63.91;;
40103;Laerm;25814;48.550;9.108;2024-03-02T07:12:53;44.73;35.00;62.84;;
40103;Laerm;25814;48.550;9.108;2024-03-02T07:15:19;52.94;32.69;65.35;;
40103;Laerm;25814;48.550;9.108;2024-03-02T07:18:10;47.49;32.47;63.88;;
40103;Laerm;25814;48.550;9.108;2024-03-02T07:20:36;41.12;33.49;58.00;;
40103;Laerm;25814;48.550;9.108;2024-03-02T07:23:04;37.61;33.98;43.56;;
40103;Laerm;25814;48.550;9.108;2024-03-02T07:25:31;39.95;33.84;53.07;;
40103;Laerm;25814;48.550;9.108;2024-03-02T07:27:57;39.41;33.11;52.85;;
40103;Laerm;25814;48.550;9.108;2024-03-02T07:30:23;41.40;32.06;55.86;;
40103;Laerm;25814;48.550;9.108;2024-03-02T07:32:52;45.23;32.15;61.51;;
40103;Laerm;25814;48.550;9.108;2024-03-02T07:35:18;41.67;32.09;58.94;;
40103;Laerm;25814;48.550;9.108;2024-03-02T07:37:44;36.88;32.68;55.83;;
40103;Laerm;25814;48.550;9.108;2024-03-02T07:40:11;39.93;33.01;59.94;;
40103;Laerm;25814;48.550;9.108;2024-03-02T07:42:41;40.58;32.71;57.90;;
40103;Laerm;25814;48.550;9.108;2024-03-02T07:45:07;40.43;33.90;54.88;;
40103;Laerm;25814;48.550;9.108;2024-03-02T07:47:34;41.87;32.90;58.46;;
40103;Laerm;25814;48.550;9.108;2024-03-02T07:50:00;39.31;32.36;53.70;;
40103;Laerm;25814;48.550;9.108;2024-03-02T07:52:26;37.13;32.88;54.91;;
40103;Laerm;25814;48.550;9.108;2024-03-02T07:54:52;38.10;32.60;58.66;;
40103;Laerm;25814;48.550;9.108;2024-03-02T07:57:19;37.47;33.61;58.62;;
40103;Laerm;25814;48.550;9.108;2024-03-02T07:59:45;47.03;33.45;60.33;;
40103;Laerm;25814;48.550;9.108;2024-03-02T08:02:12;42.62;34.25;57.73;;
40103;Laerm;25814;48.550;9.108;2024-03-02T08:04:38;45.51;33.77;62.23;;
40103;Laerm;25814;48.550;9.108;2024-03-02T08:07:05;41.08;34.21;64.00;;
40103;Laerm;25814;48.550;9.108;2024-03-02T08:09:31;44.47;35.11;64.95;;
40103;Laerm;25814;48.550;9.108;2024-03-02T08:11:58;40.90;34.85;57.27;;
40103;Laerm;25814;48.550;9.108;2024-03-02T08:14:24;41.79;34.62;62.23;;
40103;Laerm;25814;48.550;9.108;2024-03-02T08:16:50;40.55;35.67;60.03;;
40103;Laerm;25814;48.550;9.108;2024-03-02T08:19:16;42.98;33.78;61.57;;
40103;Laerm;25814;48.550;9.108;2024-03-02T08:21:43;37.46;33.81;43.74;;
40103;Laerm;25814;48.550;9.108;2024-03-02T08:24:09;38.66;33.53;53.55;;
40103;Laerm;25814;48.550;9.108;2024-03-02T08:26:35;41.00;33.28;61.19;;
40103;Laerm;25814;48.550;9.108;2024-03-02T08:29:02;43.34;33.12;62.58;;
40103;Laerm;25814;48.550;9.108;2024-03-02T08:31:29;41.73;32.44;57.47;;
40103;Laerm;25814;48.550;9.108;2024-03-02T08:33:56;39.57;32.52;63.05;;
40103;Laerm;25814;48.550;9.108;2024-03-02T08:36:26;42.48;31.75;58.71;;
40103;Laerm;25814;48.550;9.108;2024-03-02T08:38:52;46.27;31.90;60.44;;
40103;Laerm;25814;48.550;9.108;2024-03-02T08:41:18;43.34;31.73;63.54;;
40103;Laerm;25814;48.550;9.108;2024-03-02T08:43:44;36.86;31.97;46.50;;
40103;Laerm;25814;48.550;9.108;2024-03-02T08:46:10;41.20;33.51;60.19;;
40103;Laerm;25814;48.550;9.108;2024-03-02T08:48:36;42.02;32.53;62.05;;
40103;Laerm;25814;48.550;9.108;2024-03-02T08:51:03;39.91;32.81;62.32;;
40103;Laerm;25814;48.550;9.108;2024-03-02T08:53:31;41.06;31.96;53.90;;
40103;Laerm;25814;48.550;9.108;2024-03-02T08:55:57;37.84;31.37;55.12;;
40103;Laerm;25814;48.550;9.108;2024-03-02T08:58:23;41.25;33.28;51.99;;
40103;Laerm;25814;48.550;9.108;2024-03-02T09:00:49;43.43;33.64;57.04;;
40103;Laerm;25814;48.550;9.108;2024-03-02T09:03:16;42.25;32.70;58.85;;
40103;Laerm;25814;48.550;9.108;2024-03-02T09:05:42;43.82;32.21;57.87;;
40103;Laerm;25814;48.550;9.108;2024-03-02T09:08:08;40.09;32.61;56.39;;
40103;Laerm;25814;48.550;9.108;2024-03-02T09:10:34;37.19;32.20;53.00;;
40103;Laerm;25814;48.550;9.108;2024-03-02T09:13:00;45.46;31.96;65.27;;
40103;Laerm;25814;48.550;9.108;2024-03-02T09:15:26;44.34;31.92;63.30;;
40103;Laerm;25814;48.550;9.108;2024-03-02T09:17:53;45.99;31.81;60.48;;
40103;Laerm;25814;48.550;9.108;2024-03-02T09:20:19;47.79;33.58;57.34;;
40103;Laerm;25814;48.550;9.108;2024-03-02T09:22:45;42.99;32.29;57.78;;
40103;Laerm;25814;48.550;9.108;2024-03-02T09:25:12;37.55;32.31;54.11;;
40103;Laerm;25814;48.550;9.108;2024-03-02T09:27:40;38.53;32.40;58.52;;
40103;Laerm;25814;48.550;9.108;2024-03-02T09:30:09;40.68;32.26;51.13;;
40103;Laerm;25814;48.550;9.108;2024-03-02T09:32:37;40.97;32.30;60.65;;
40103;Laerm;25814;48.550;9.108;2024-03-02T09:35:04;47.41;31.94;66.03;;
40103;Laerm;25814;48.550;9.108;2024-03-02T09:37:30;50.18;31.71;63.70;;
40103;Laerm;25814;48.550;9.108;2024-03-02T09:39:56;49.81;31.07;67.17;;
40103;Laerm;25814;48.550;9.108;2024-03-02T09:42:22;43.10;31.52;63.81;;
40103;Laerm;25814;48.550;9.108;2024-03-02T09:44:49;41.67;31.08;60.08;;
40103;Laerm;25814;48.550;9.108;2024-03-02T09:47:15;49.47;30.97;60.28;;
40103;Laerm;25814;48.550;9.108;2024-03-02T09:49:41;51.16;34.93;60.73;;
40103;Laerm;25814;48.550;9.108;2024-03-02T09:52:07;41.12;31.29;58.54;;
40103;Laerm;25814;48.550;9.108;2024-03-02T09:54:33;53.04;30.97;70.84;;
40103;Laerm;25814;48.550;9.108;2024-03-02T09:56:59;41.72;31.78;61.52;;
40103;Laerm;25814;48.550;9.108;2024-03-02T09:59:27;45.03;32.02;59.56;;
40103;Laerm;25814;48.550;9.108;2024-03-02T10:02:02;41.46;32.04;60.17;;
40103;Laerm;25814;48.550;9.108;2024-03-02T10:04:30;38.72;30.21;50.24;;
40103;Laerm;25814;48.550;9.108;2024-03-02T10:07:17;39.70;30.12;56.44;;
40103;Laerm;25814;48.550;9.108;2024-03-02T10:09:46;37.53;30.45;55.61;;
40103;Laerm;25814;48.550;9.108;2024-03-02T10:12:17;47.23;30.69;58.07;;
40103;Laerm;25814;48.550;9.108;2024-03-02T10:14:44;35.51;29.76;54.94;;
40103;Laerm;25814;48.550;9.108;2024-03-02T10:17:13;36.00;29.70;48.46;;
40103;Laerm;25814;48.550;9.108;2024-03-02T10:19:40;38.30;31.52;57.78;;
40103;Laerm;25814;48.550;9.108;2024-03-02T10:22:08;34.48;30.71;49.48;;
40103;Laerm;25814;48.550;9.108;2024-03-02T10:24:41;34.92;30.75;47.56;;
40103;Laerm;25814;48.550;9.108;2024-03-02T10:27:10;42.91;30.61;65.88;;
40103;Laerm;25814;48.550;9.108;2024-03-02T10:29:38;33.18;30.28;48.31;;
40103;Laerm;25814;48.550;9.108;2024-03-02T10:32:05;36.70;30.56;54.73;;
40103;Laerm;25814;48.550;9.108;2024-03-02T10:34:32;36.33;29.96;54.06;;
40103;Laerm;25814;48.550;9.108;2024-03-02T10:36:59;42.60;30.36;53.95;;
40103;Laerm;25814;48.550;9.108;2024-03-02T10:39:26;38.00;31.11;49.94;;
40103;Laerm;25814;48.550;9.108;2024-03-02T10:41:52;38.44;31.03;53.48;;
40103;Laerm;25814;48.550;9.108;2024-03-02T10:44:18;37.45;30.35;48.84;;
40103;Laerm;25814;48.550;9.108;2024-03-02T10:46:47;37.28;30.15;55.80;;
40103;Laerm;25814;48.550;9.108;2024-03-02T10:49:15;34.37;30.28;45.16;;
40103;Laerm;25814;48.550;9.108;2024-03-02T10:51:42;40.30;29.96;57.31;;
40103;Laerm;25814;48.550;9.108;2024-03-02T10:54:08;38.40;30.61;57.45;;
40103;Laerm;25814;48.550;9.108;2024-03-02T10:56:40;35.19;29.58;53.07;;
40103;Laerm;25814;48.550;9.108;2024-03-02T10:59:40;35.53;29.73;48.40;;
40103;Laerm;25814;48.550;9.108;2024-03-02T11:02:05;33.64;29.65;45.23;;
40103;Laerm;25814;48.550;9.108;2024-03-02T11:04:34;35.84;30.45;47.18;;
40103;Laerm;25814;48.550;9.108;2024-03-02T11:07:09;34.30;30.49;46.51;;
40103;Laerm;25814;48.550;9.108;2024-03-02T11:09:41;48.17;30.59;65.86;;
40103;Laerm;25814;48.550;9.108;2024-03-02T11:12:19;45.65;31.00;58.33;;
40103;Laerm;25814;48.550;9.108;2024-03-02T11:14:51;50.54;31.35;63.56;;
40103;Laerm;25814;48.550;9.108;2024-03-02T11:17:18;33.51;30.03;43.75;;
40103;Laerm;25814;48.550;9.108;2024-03-02T11:19:46;43.98;30.33;57.26;;
40103;Laerm;25814;48.550;9.108;2024-03-02T11:22:15;36.33;30.39;50.18;;
40103;Laerm;25814;48.550;9.108;2024-03-02T11:24:48;33.76;30.19;48.48;;
40103;Laerm;25814;48.550;9.108;2024-03-02T11:32:59;36.02;30.15;51.57;;
40103;Laerm;25814;48.550;9.108;2024-03-02T11:35:26;39.07;31.94;54.96;;
40103;Laerm;25814;48.550;9.108;2024-03-02T11:37:54;34.07;29.94;47.80;;
40103;Laerm;25814;48.550;9.108;2024-03-02T11:40:28;39.09;29.91;56.82;;
40103;Laerm;25814;48.550;9.108;2024-03-02T11:42:54;37.40;29.88;57.59;;
40103;Laerm;25814;48.550;9.108;2024-03-02T11:45:27;45.41;30.02;60.60;;
40103;Laerm;25814;48.550;9.108;2024-03-02T11:47:55;40.08;32.40;61.28;;
40103;Laerm;25814;48.550;9.108;2024-03-02T11:50:34;36.12;30.37;54.09;;
40103;Laerm;25814;48.550;9.108;2024-03-02T11:53:06;36.47;29.33;48.88;;
40103;Laerm;25814;48.550;9.108;2024-03-02T11:55:35;47.71;29.89;64.44;;
40103;Laerm;25814;48.550;9.108;2024-03-02T11:58:05;42.71;31.05;60.91;;
40103;Laerm;25814;48.550;9.108;2024-03-02T12:00:32;39.54;33.00;52.67;;
40103;Laerm;25814;48.550;9.108;2024-03-02T12:03:07;38.91;29.63;57.46;;
40103;Laerm;25814;48.550;9.108;2024-03-02T12:05:35;44.74;37.09;58.62;;
40103;Laerm;25814;48.550;9.108;2024-03-02T12:08:06;41.73;36.89;54.82;;
40103;Laerm;25814;48.550;9.108;2024-03-02T12:10:35;41.96;36.46;56.15;;
40103;Laerm;25814;48.550;9.108;2024-03-02T12:13:04;43.48;36.28;56.77;;
40103;Laerm;25814;48.550;9.108;2024-03-02T12:15:36;45.02;36.42;56.79;;
40103;Laerm;25814;48.550;9.108;2024-03-02T12:18:02;40.83;36.40;52.60;;
40103;Laerm;25814;48.550;9.108;2024-03-02T12:20:31;35.78;31.07;51.90;;
40103;Laerm;25814;48.550;9.108;2024-03-02T12:23:00;37.37;29.87;53.40;;
40103;Laerm;25814;48.550;9.108;2024-03-02T12:25:27;36.94;29.80;57.17;;
40103;Laerm;25814;48.550;9.108;2024-03-02T12:27:57;35.20;29.23;56.91;;
40103;Laerm;25814;48.550;9.108;2024-03-02T12:30:24;37.17;29.44;59.79;;
40103;Laerm;25814;48.550;9.108;2024-03-02T12:32:50;38.03;29.56;46.86;;
40103;Laerm;25814;48.550;9.108;2024-03-02T12:35:18;34.25;29.74;49.01;;
40103;Laerm;25814;48.550;9.108;2024-03-02T12:37:49;35.70;29.65;51.51;;
40103;Laerm;25814;48.550;9.108;2024-03-02T12:40:17;35.75;30.16;58.70;;
40103;Laerm;25814;48.550;9.108;2024-03-02T12:42:45;33.48;30.11;46.54;;
40103;Laerm;25814;48.550;9.108;2024-03-02T12:45:12;32.87;29.79;56.48;;
40103;Laerm;25814;48.550;9.108;2024-03-02T12:47:42;34.60;29.99;43.04;;
40103;Laerm;25814;48.550;9.108;2024-03-02T12:50:10;36.00;30.43;54.35;;
40103;Laerm;25814;48.550;9.108;2024-03-02T12:52:36;33.95;29.35;48.25;;
40103;Laerm;25814;48.550;9.108;2024-03-02T12:55:04;46.58;31.05;59.94;;
40103;Laerm;25814;48.550;9.108;2024-03-02T12:57:34;35.80;29.81;60.06;;
40103;Laerm;25814;48.550;9.108;2024-03-02T13:00:05;34.12;29.28;48.56;;
40103;Laerm;25814;48.550;9.108;2024-03-02T13:02:36;35.56;30.39;52.18;;
40103;Laerm;25814;48.550;9.108;2024-03-02T13:05:02;36.35;30.20;53.13;;
40103;Laerm;25814;48.550;9.108;2024-03-02T13:07:29;39.55;30.25;58.88;;
40103;Laerm;25814;48.550;9.108;2024-03-02T13:09:56;40.96;30.29;53.35;;
40103;Laerm;25814;48.550;9.108;2024-03-02T13:12:24;38.13;30.18;52.48;;
40103;Laerm;25814;48.550;9.108;2024-03-02T13:14:54;36.31;30.55;53.71;;
40103;Laerm;25814;48.550;9.108;2024-03-02T13:17:21;33.66;30.48;42.86;;
40103;Laerm;25814;48.550;9.108;2024-03-02T13:19:56;38.20;30.42;51.88;;
40103;Laerm;25814;48.550;9.108;2024-03-02T13:22:24;43.31;30.70;60.65;;
40103;Laerm;25814;48.550;9.108;2024-03-02T13:24:51;35.62;30.26;50.68;;
40103;Laerm;25814;48.550;9.108;2024-03-02T13:27:18;36.22;30.57;52.00;;
40103;Laerm;25814;48.550;9.108;2024-03-02T13:29:48;38.11;30.30;51.09;;
40103;Laerm;25814;48.550;9.108;2024-03-02T13:32:15;37.25;29.95;54.23;;
40103;Laerm;25814;48.550;9.108;2024-03-02T13:34:42;42.36;30.37;65.08;;
40103;Laerm;25814;48.550;9.108;2024-03-02T13:37:08;34.61;30.69;44.09;;
40103;Laerm;25814;48.550;9.108;2024-03-02T13:39:35;38.77;30.04;57.90;;
40103;Laerm;25814;48.550;9.108;2024-03-02T13:42:11;37.14;30.28;59.22;;
40103;Laerm;25814;48.550;9.108;2024-03-02T13:44:40;40.89;31.19;53.01;;
40103;Laerm;25814;48.550;9.108;2024-03-02T13:47:07;33.04;30.20;45.32;;
40103;Laerm;25814;48.550;9.108;2024-03-02T13:49:33;38.18;32.16;54.22;;
40103;Laerm;25814;48.550;9.108;2024-03-02T13:52:03;45.92;31.19;61.77;;
40103;Laerm;25814;48.550;9.108;2024-03-02T13:54:37;36.23;30.74;52.27;;